createdAt,value
2023-02-11T00:01:33.055Z,76.63
2023-02-11T00:04:00.086Z,76.01
2023-02-11T00:06:28.070Z,76.94
2023-02-11T00:08:55.032Z,76.54
2023-02-11T00:11:22.514Z,76.46
2023-02-11T00:13:49.049Z,76.71
2023-02-11T00:16:16.813Z,76.46
2023-02-11T00:18:43.910Z,76.15
2023-02-11T00:21:11.765Z,77.17
2023-02-11T00:23:38.662Z,77.20
2023-02-11T00:26:11.150Z,77.21
2023-02-11T00:28:37.493Z,76.58
2023-02-11T00:31:04.082Z,77.23
2023-02-11T00:33:30.788Z,77.09
2023-02-11T00:35:57.193Z,76.39
2023-02-11T00:38:23.740Z,76.11
2023-02-11T00:40:50.182Z,76.57
2023-02-11T00:43:17.266Z,76.74
2023-02-11T00:45:44.846Z,76.73
2023-02-11T00:48:11.595Z,76.98
2023-02-11T00:50:38.032Z,76.51
2023-02-11T00:53:04.759Z,76.75
2023-02-11T00:55:31.208Z,77.17
2023-02-11T00:57:58.767Z,76.81
2023-02-11T01:00:25.278Z,76.70
2023-02-11T01:02:52.327Z,76.46
2023-02-11T01:05:19.349Z,76.92
2023-02-11T01:07:46.268Z,76.68
2023-02-11T01:10:12.672Z,76.65
2023-02-11T01:12:43.161Z,76.92
2023-02-11T01:15:09.868Z,76.86
2023-02-11T01:17:36.443Z,76.87
2023-02-11T01:20:04.853Z,76.92
2023-02-11T01:22:31.393Z,76.93
2023-02-11T01:24:57.746Z,76.43
2023-02-11T01:27:24.148Z,76.63
2023-02-11T01:29:50.611Z,76.36
2023-02-11T01:32:18.262Z,76.47
2023-02-11T01:34:44.737Z,76.80
2023-02-11T01:37:11.226Z,77.19
2023-02-11T01:39:37.573Z,76.12
2023-02-11T01:42:04.087Z,76.94
2023-02-11T01:44:38.044Z,76.85
2023-02-11T01:47:06.271Z,77.26
2023-02-11T01:49:35.133Z,76.96
2023-02-11T01:52:03.458Z,77.63
2023-02-11T01:54:51.369Z,76.95
2023-02-11T01:57:22.502Z,77.48
2023-02-11T01:59:48.983Z,77.74
2023-02-11T02:02:17.580Z,77.13
2023-02-11T02:04:52.993Z,77.17
2023-02-11T02:07:24.997Z,77.49
2023-02-11T02:09:57.175Z,77.48
2023-02-11T02:12:23.661Z,78.00
2023-02-11T02:14:51.365Z,77.90
2023-02-11T02:17:35.324Z,78.64
2023-02-11T02:20:10.659Z,78.49
2023-02-11T02:22:40.284Z,78.19
2023-02-11T02:25:18.899Z,78.57
2023-02-11T02:27:48.267Z,78.76
2023-02-11T02:30:14.631Z,78.87
2023-02-11T02:32:44.233Z,78.53
2023-02-11T02:35:29.619Z,78.24
2023-02-11T02:38:02.031Z,78.43
2023-02-11T02:40:33.652Z,78.31
2023-02-11T02:43:01.444Z,78.82
2023-02-11T02:45:28.331Z,79.30
2023-02-11T02:47:55.161Z,78.79
2023-02-11T02:50:24.963Z,79.21
2023-02-11T02:52:51.282Z,79.28
2023-02-11T02:55:17.604Z,79.56
2023-02-11T02:58:02.788Z,79.27
2023-02-11T03:00:44.251Z,79.81
2023-02-11T03:03:10.667Z,79.47
2023-02-11T03:05:54.023Z,80.12
2023-02-11T03:08:27.336Z,79.21
2023-02-11T03:10:54.523Z,80.36
2023-02-11T03:13:23.975Z,79.93
2023-02-11T03:15:52.606Z,79.83
2023-02-11T03:18:21.199Z,80.29
2023-02-11T03:20:49.228Z,80.25
2023-02-11T03:23:21.476Z,80.15
2023-02-11T03:26:06.120Z,80.19
2023-02-11T03:28:36.658Z,80.30
2023-02-11T03:31:03.049Z,80.30
2023-02-11T03:33:34.575Z,79.98
2023-02-11T03:36:04.306Z,79.88
2023-02-11T03:38:37.411Z,80.51
2023-02-11T03:41:06.520Z,79.95
2023-02-11T03:43:34.565Z,80.41
2023-02-11T03:46:01.514Z,80.39
2023-02-11T03:48:30.862Z,80.01
2023-02-11T03:50:59.042Z,80.61
2023-02-11T03:53:25.424Z,80.65
2023-02-11T03:55:54.650Z,80.85
2023-02-11T03:58:21.106Z,81.14
2023-02-11T04:00:48.722Z,80.91
2023-02-11T04:03:15.182Z,81.20
2023-02-11T04:05:41.614Z,80.88
2023-02-11T04:08:08.422Z,81.44
2023-02-11T04:10:34.844Z,81.81
2023-02-11T04:13:01.276Z,81.38
2023-02-11T04:15:27.745Z,81.40
2023-02-11T04:17:54.181Z,81.25
2023-02-11T04:20:20.615Z,81.77
2023-02-11T04:22:47.003Z,81.60
2023-02-11T04:25:13.365Z,81.83
2023-02-11T04:27:39.715Z,81.00
2023-02-11T04:30:07.047Z,81.43
2023-02-11T04:32:33.501Z,81.64
2023-02-11T04:34:59.826Z,81.27
2023-02-11T04:37:26.200Z,81.69
2023-02-11T04:39:52.520Z,81.56
2023-02-11T04:42:18.829Z,81.52
2023-02-11T04:44:45.187Z,81.18
2023-02-11T04:47:13.370Z,81.91
2023-02-11T04:49:39.718Z,82.22
2023-02-11T04:52:06.100Z,81.80
2023-02-11T04:54:32.524Z,81.29
2023-02-11T04:56:58.908Z,82.46
2023-02-11T04:59:25.246Z,81.78
2023-02-11T05:01:51.640Z,82.10
2023-02-11T05:04:18.186Z,81.35
2023-02-11T05:06:44.615Z,82.20
2023-02-11T05:09:14.216Z,81.86
2023-02-11T05:11:40.756Z,82.47
2023-02-11T05:14:07.400Z,82.35
2023-02-11T05:16:33.773Z,82.03
2023-02-11T05:19:00.428Z,81.57
2023-02-11T05:21:26.917Z,82.23
2023-02-11T05:23:53.334Z,82.41
2023-02-11T05:26:19.780Z,81.77
2023-02-11T05:28:46.205Z,82.21
2023-02-11T05:31:14.467Z,82.44
2023-02-11T05:33:41.383Z,82.06
2023-02-11T05:36:09.488Z,82.60
2023-02-11T05:38:36.737Z,82.40
2023-02-11T05:41:03.585Z,82.44
2023-02-11T05:43:30.186Z,82.67
2023-02-11T05:45:57.056Z,82.66
2023-02-11T05:48:23.426Z,82.53
2023-02-11T05:50:49.814Z,82.96
2023-02-11T05:53:16.140Z,82.29
2023-02-11T05:55:42.703Z,82.48
2023-02-11T05:58:09.079Z,82.76
2023-02-11T06:00:35.713Z,82.59
2023-02-11T06:03:04.165Z,82.96
2023-02-11T06:05:30.692Z,82.81
2023-02-11T06:07:57.185Z,83.01
2023-02-11T06:10:23.557Z,82.98
2023-02-11T06:12:49.915Z,83.04
2023-02-11T06:15:16.263Z,82.96
2023-02-11T06:17:42.726Z,83.39
2023-02-11T06:20:12.072Z,83.21
2023-02-11T06:22:38.582Z,83.15
2023-02-11T06:25:05.339Z,83.18
2023-02-11T06:27:31.806Z,82.91
2023-02-11T06:29:58.464Z,82.68
2023-02-11T06:32:42.886Z,83.36
2023-02-11T06:35:12.351Z,83.26
2023-02-11T06:37:39.117Z,83.37
2023-02-11T06:40:05.680Z,84.02
2023-02-11T06:42:32.043Z,83.21
2023-02-11T06:44:58.527Z,83.96
2023-02-11T06:47:24.862Z,83.91
2023-02-11T06:49:51.164Z,83.89
2023-02-11T06:52:17.536Z,84.27
2023-02-11T06:54:43.952Z,84.13
2023-02-11T06:57:10.320Z,84.25
2023-02-11T06:59:36.648Z,84.34
2023-02-11T07:02:03.087Z,84.34
2023-02-11T07:04:29.613Z,84.25
2023-02-11T07:06:55.972Z,84.40
2023-02-11T07:09:22.509Z,83.90
2023-02-11T07:11:48.896Z,84.42
2023-02-11T07:14:15.327Z,84.63
2023-02-11T07:16:41.725Z,84.87
2023-02-11T07:19:08.094Z,84.42
2023-02-11T07:21:34.464Z,85.19
2023-02-11T07:24:01.188Z,84.73
2023-02-11T07:26:28.874Z,84.90
2023-02-11T07:28:55.710Z,85.15
2023-02-11T07:31:23.423Z,84.57
2023-02-11T07:33:51.130Z,84.76
2023-02-11T07:36:17.554Z,84.76
2023-02-11T07:38:44.050Z,85.32
2023-02-11T07:41:12.057Z,85.13
2023-02-11T07:43:38.875Z,85.05
2023-02-11T07:46:31.741Z,85.40
2023-02-11T07:48:58.188Z,85.38
2023-02-11T07:51:26.042Z,84.96
2023-02-11T07:53:53.463Z,84.54
2023-02-11T07:56:20.448Z,84.91
2023-02-11T07:58:47.203Z,84.49
2023-02-11T08:01:18.222Z,84.84
2023-02-11T08:03:44.770Z,84.14
2023-02-11T08:06:12.793Z,84.45
2023-02-11T08:08:39.672Z,84.29
2023-02-11T08:11:10.358Z,84.46
2023-02-11T08:13:37.199Z,84.29
2023-02-11T08:16:04.409Z,83.94
2023-02-11T08:18:31.021Z,84.14
2023-02-11T08:20:57.464Z,84.13
2023-02-11T08:23:24.394Z,84.05
2023-02-11T08:25:50.884Z,84.07
2023-02-11T08:28:17.251Z,84.18
2023-02-11T08:30:43.695Z,83.89
2023-02-11T08:33:10.111Z,83.82
2023-02-11T08:35:37.196Z,83.78
2023-02-11T08:38:03.595Z,83.83
2023-02-11T08:40:29.890Z,84.00
2023-02-11T08:42:56.271Z,83.80
2023-02-11T08:45:22.704Z,83.73
2023-02-11T08:47:49.097Z,83.40
2023-02-11T08:50:15.514Z,83.33
2023-02-11T08:52:43.032Z,83.37
2023-02-11T08:55:09.474Z,83.24
2023-02-11T08:57:35.963Z,83.28
2023-02-11T09:00:02.788Z,83.38
2023-02-11T09:02:29.993Z,83.55
2023-02-11T09:04:56.461Z,83.14
2023-02-11T09:07:22.811Z,82.91
2023-02-11T09:09:49.178Z,82.59
2023-02-11T09:12:15.651Z,82.50
2023-02-11T09:14:42.969Z,82.87
2023-02-11T09:17:09.505Z,82.53
2023-02-11T09:19:36.233Z,82.63
2023-02-11T09:22:02.670Z,82.06
2023-02-11T09:24:29.014Z,81.87
2023-02-11T09:26:55.412Z,81.79
2023-02-11T09:29:21.785Z,81.48
2023-02-11T09:31:48.362Z,81.47
2023-02-11T09:34:15.857Z,81.70
2023-02-11T09:36:42.472Z,81.41
2023-02-11T09:39:11.663Z,81.01
2023-02-11T09:41:41.091Z,81.28
2023-02-11T09:44:08.659Z,81.41
2023-02-11T09:46:36.508Z,81.48
2023-02-11T09:49:04.736Z,81.18
2023-02-11T09:52:00.513Z,81.21
2023-02-11T09:54:30.505Z,81.18
2023-02-11T09:56:56.870Z,80.98
2023-02-11T09:59:23.255Z,80.92
2023-02-11T10:01:53.501Z,80.65
2023-02-11T10:04:22.954Z,80.91
2023-02-11T10:06:52.522Z,80.79
2023-02-11T10:09:33.093Z,80.65
2023-02-11T10:11:59.427Z,80.61
2023-02-11T10:14:44.429Z,79.93
2023-02-11T10:17:16.884Z,80.31
2023-02-11T10:19:50.420Z,79.98
2023-02-11T10:22:20.234Z,80.09
2023-02-11T10:24:55.125Z,80.02
2023-02-11T10:27:24.487Z,79.53
2023-02-11T10:29:56.989Z,79.77
2023-02-11T10:32:23.316Z,79.23
2023-02-11T10:34:50.768Z,79.44
2023-02-11T10:37:17.177Z,79.13
2023-02-11T10:39:43.511Z,79.45
2023-02-11T10:42:11.766Z,79.44
2023-02-11T10:44:40.122Z,79.36
2023-02-11T10:47:13.578Z,79.18
2023-02-11T10:49:40.030Z,79.11
2023-02-11T10:52:14.366Z,79.54
2023-02-11T10:54:40.691Z,79.33
2023-02-11T10:57:07.520Z,79.47
2023-02-11T10:59:39.958Z,79.19
2023-02-11T11:02:21.027Z,78.84
2023-02-11T11:04:47.658Z,79.24
2023-02-11T11:07:28.074Z,78.75
2023-02-11T11:10:23.773Z,79.03
2023-02-11T11:12:50.122Z,78.69
2023-02-11T11:15:24.264Z,78.68
2023-02-11T11:17:51.643Z,78.13
2023-02-11T11:20:21.057Z,78.00
2023-02-11T11:22:49.038Z,77.83
2023-02-11T11:25:26.899Z,78.04
2023-02-11T11:27:55.471Z,77.74
2023-02-11T11:30:23.504Z,78.12
2023-02-11T11:32:50.070Z,77.69
2023-02-11T11:35:26.932Z,77.72
2023-02-11T11:38:03.683Z,77.21
2023-02-11T11:40:31.574Z,77.43
2023-02-11T11:43:10.203Z,77.02
2023-02-11T11:45:36.564Z,76.99
2023-02-11T11:48:02.941Z,77.23
2023-02-11T11:50:37.052Z,77.35
2023-02-11T11:53:13.825Z,77.32
2023-02-11T11:55:57.932Z,76.69
2023-02-11T11:58:28.946Z,77.00
2023-02-11T12:00:55.367Z,76.44
2023-02-11T12:03:40.089Z,76.85
2023-02-11T12:06:12.381Z,76.44
2023-02-11T12:08:45.878Z,76.61
2023-02-11T12:11:18.273Z,76.42
2023-02-11T12:14:03.548Z,76.24
2023-02-11T12:16:42.002Z,76.05
2023-02-11T12:19:38.016Z,76.14
2023-02-11T12:22:10.234Z,76.02
2023-02-11T12:24:53.210Z,75.69
2023-02-11T12:27:19.612Z,75.48
2023-02-11T12:30:00.189Z,75.23
2023-02-11T12:32:33.354Z,75.45
2023-02-11T12:35:12.648Z,75.26
2023-02-11T12:37:51.061Z,74.77
2023-02-11T12:40:23.004Z,75.08
2023-02-11T12:43:17.813Z,74.62
2023-02-11T12:45:47.091Z,74.55
2023-02-11T12:48:33.602Z,74.84
2023-02-11T12:51:01.781Z,74.57
2023-02-11T12:53:43.333Z,74.68
2023-02-11T12:56:29.259Z,74.07
2023-02-11T12:58:57.339Z,73.74
2023-02-11T13:01:27.564Z,73.35
2023-02-11T13:04:05.581Z,73.53
2023-02-11T13:06:50.139Z,73.13
2023-02-11T13:09:26.551Z,73.16
2023-02-11T13:11:55.764Z,72.96
2023-02-11T13:14:25.461Z,72.69
2023-02-11T13:16:53.271Z,72.58
2023-02-11T13:19:25.340Z,72.46
2023-02-11T13:22:02.844Z,72.51
2023-02-11T13:24:35.737Z,72.44
2023-02-11T13:27:10.593Z,72.53
2023-02-11T13:30:04.396Z,72.59
2023-02-11T13:32:49.514Z,71.99
2023-02-11T13:35:35.191Z,71.77
2023-02-11T13:38:06.564Z,70.66
2023-02-11T13:40:39.664Z,70.99
2023-02-11T13:43:19.049Z,70.38
2023-02-11T13:45:46.932Z,70.43
2023-02-11T13:48:24.494Z,70.05
2023-02-11T13:50:53.263Z,70.06
2023-02-11T13:53:20.281Z,69.79
2023-02-11T13:55:48.800Z,69.84
2023-02-11T13:58:15.201Z,69.99
2023-02-11T14:00:47.209Z,70.19
2023-02-11T14:03:31.961Z,70.41
2023-02-11T14:06:29.455Z,70.56
2023-02-11T14:09:14.137Z,70.08
2023-02-11T14:11:42.881Z,70.88
2023-02-11T14:14:28.268Z,70.55
2023-02-11T14:17:07.080Z,70.78
2023-02-11T14:19:34.572Z,70.85
2023-02-11T14:22:04.735Z,70.76
2023-02-11T14:24:34.795Z,70.86
2023-02-11T14:27:07.300Z,71.01
2023-02-11T14:29:33.625Z,71.30
2023-02-11T14:32:00.070Z,71.06
2023-02-11T14:34:45.319Z,71.06
2023-02-11T14:37:20.589Z,70.96
2023-02-11T14:40:00.579Z,70.78
2023-02-11T14:42:28.101Z,71.14
2023-02-11T14:44:57.465Z,70.91
2023-02-11T14:47:28.648Z,71.13
2023-02-11T14:49:55.634Z,71.03
2023-02-11T14:52:22.251Z,71.23
2023-02-11T14:54:49.122Z,71.02
2023-02-11T14:57:17.231Z,70.87
2023-02-11T15:00:15.547Z,71.58
2023-02-11T15:02:43.257Z,70.96
2023-02-11T15:05:13.606Z,70.81
2023-02-11T15:07:43.648Z,70.71
2023-02-11T15:10:15.880Z,70.92
2023-02-11T15:12:47.663Z,70.81
2023-02-11T15:15:14.636Z,71.30
2023-02-11T15:17:41.803Z,71.00
2023-02-11T15:20:15.853Z,71.18
2023-02-11T15:22:43.922Z,71.36
2023-02-11T15:25:16.645Z,70.95
2023-02-11T15:27:50.532Z,71.33
2023-02-11T15:30:22.889Z,70.91
2023-02-11T15:32:50.758Z,70.97
2023-02-11T15:35:17.898Z,71.18
2023-02-11T15:37:44.914Z,71.16
2023-02-11T15:40:19.339Z,71.27
2023-02-11T15:42:57.403Z,71.25
2023-02-11T15:45:36.393Z,71.52
2023-02-11T15:48:21.807Z,71.59
2023-02-11T15:50:53.762Z,71.77
2023-02-11T15:53:40.561Z,72.10
2023-02-11T15:56:12.679Z,71.95
2023-02-11T15:58:40.233Z,72.44
2023-02-11T16:01:07.524Z,72.21
2023-02-11T16:03:34.546Z,72.71
2023-02-11T16:06:19.707Z,72.60
2023-02-11T16:08:59.986Z,73.17
2023-02-11T16:11:34.093Z,73.11
2023-02-11T16:14:00.969Z,72.70
2023-02-11T16:16:29.074Z,73.47
2023-02-11T16:19:05.230Z,73.42
2023-02-11T16:21:39.866Z,73.12
2023-02-11T16:24:18.201Z,73.62
2023-02-11T16:26:47.745Z,73.28
2023-02-11T16:29:15.626Z,73.26
2023-02-11T16:31:46.710Z,73.36
2023-02-11T16:34:14.293Z,73.85
2023-02-11T16:36:40.910Z,73.93
2023-02-11T16:39:07.376Z,73.85
2023-02-11T16:41:33.758Z,73.74
2023-02-11T16:44:00.114Z,73.84
2023-02-11T16:46:27.452Z,74.13
2023-02-11T16:48:54.918Z,74.05
2023-02-11T16:51:21.458Z,74.56
2023-02-11T16:53:47.818Z,74.89
2023-02-11T16:56:15.785Z,74.71
2023-02-11T16:58:42.410Z,75.36
2023-02-11T17:01:09.166Z,75.06
2023-02-11T17:03:39.978Z,75.50
2023-02-11T17:06:10.236Z,75.73
2023-02-11T17:08:36.698Z,76.25
2023-02-11T17:11:04.397Z,76.00
2023-02-11T17:13:30.976Z,75.77
2023-02-11T17:15:57.497Z,76.11
2023-02-11T17:18:23.961Z,76.00
2023-02-11T17:20:50.649Z,75.90
2023-02-11T17:23:17.011Z,76.17
2023-02-11T17:25:43.338Z,76.56
2023-02-11T17:28:10.051Z,76.59
2023-02-11T17:30:36.503Z,76.74
2023-02-11T17:33:02.894Z,76.31
2023-02-11T17:35:29.372Z,76.58
2023-02-11T17:37:55.797Z,76.22
2023-02-11T17:40:22.131Z,76.59
2023-02-11T17:42:48.509Z,76.66
2023-02-11T17:45:15.170Z,76.68
2023-02-11T17:47:41.667Z,76.61
2023-02-11T17:50:08.370Z,76.98
2023-02-11T17:52:34.756Z,76.99
2023-02-11T17:55:01.114Z,76.81
2023-02-11T17:57:27.562Z,77.32
2023-02-11T17:59:54.048Z,76.91
2023-02-11T18:02:20.723Z,76.98
2023-02-11T18:04:47.105Z,76.99
2023-02-11T18:07:13.566Z,76.95
2023-02-11T18:09:40.205Z,77.14
2023-02-11T18:12:06.845Z,77.17
2023-02-11T18:14:34.025Z,77.09
2023-02-11T18:17:00.395Z,77.28
2023-02-11T18:19:30.450Z,77.29
2023-02-11T18:21:59.148Z,77.18
2023-02-11T18:24:27.129Z,77.38
2023-02-11T18:26:53.506Z,77.37
2023-02-11T18:29:19.962Z,77.44
2023-02-11T18:31:46.452Z,77.67
2023-02-11T18:34:13.323Z,77.90
2023-02-11T18:36:39.701Z,77.86
2023-02-11T18:39:06.290Z,77.98
2023-02-11T18:41:32.780Z,78.58
2023-02-11T18:44:02.680Z,78.29
2023-02-11T18:46:29.714Z,78.32
2023-02-11T18:48:56.451Z,78.59
2023-02-11T18:51:23.202Z,78.37
2023-02-11T18:53:49.741Z,78.84
2023-02-11T18:56:20.497Z,78.83
2023-02-11T18:58:46.918Z,78.52
2023-02-11T19:01:13.432Z,78.92
2023-02-11T19:03:40.221Z,78.65
2023-02-11T19:06:06.897Z,79.39
2023-02-11T19:08:33.287Z,79.43
2023-02-11T19:10:59.654Z,79.04
2023-02-11T19:13:27.942Z,79.20
2023-02-11T19:15:54.534Z,79.27
2023-02-11T19:18:21.063Z,79.05
2023-02-11T19:20:47.517Z,79.34
2023-02-11T19:23:13.878Z,79.77
2023-02-11T19:25:47.178Z,79.58
2023-02-11T19:28:13.522Z,79.43
2023-02-11T19:30:40.642Z,79.47
2023-02-11T19:33:09.935Z,79.60
2023-02-11T19:35:36.578Z,79.51
2023-02-11T19:38:03.574Z,79.26
2023-02-11T19:40:30.134Z,79.32
2023-02-11T19:42:56.537Z,79.34
2023-02-11T19:45:22.939Z,79.77
2023-02-11T19:47:49.358Z,79.72
2023-02-11T19:50:15.673Z,79.68
2023-02-11T19:52:42.116Z,79.91
2023-02-11T19:55:08.562Z,79.65
2023-02-11T19:57:36.362Z,79.80
2023-02-11T20:00:02.948Z,79.45
2023-02-11T20:02:29.949Z,79.52
2023-02-11T20:04:56.483Z,79.66
2023-02-11T20:07:22.849Z,79.64
2023-02-11T20:09:49.206Z,79.61
2023-02-11T20:12:15.654Z,79.38
2023-02-11T20:14:42.070Z,79.67
2023-02-11T20:17:08.413Z,79.81
2023-02-11T20:19:34.806Z,79.82
2023-02-11T20:22:01.132Z,79.56
2023-02-11T20:24:27.826Z,79.80
2023-02-11T20:26:57.024Z,79.84
2023-02-11T20:29:23.793Z,79.80
2023-02-11T20:31:50.449Z,79.65
2023-02-11T20:34:17.690Z,79.49
2023-02-11T20:36:51.390Z,79.66
2023-02-11T20:39:18.541Z,79.49
2023-02-11T20:41:45.955Z,79.80
2023-02-11T20:44:12.382Z,79.55
2023-02-11T20:46:40.289Z,79.69
2023-02-11T20:49:08.490Z,79.56
2023-02-11T20:51:34.986Z,79.54
2023-02-11T20:54:01.353Z,79.57
2023-02-11T20:56:29.199Z,79.63
2023-02-11T20:58:56.856Z,79.65
2023-02-11T21:01:25.224Z,79.64
2023-02-11T21:03:51.622Z,79.62
2023-02-11T21:06:18.603Z,79.89
2023-02-11T21:08:44.966Z,79.79
2023-02-11T21:11:11.860Z,79.71
2023-02-11T21:13:39.031Z,79.67
2023-02-11T21:16:06.260Z,80.05
2023-02-11T21:18:32.670Z,79.81
2023-02-11T21:20:59.462Z,80.10
2023-02-11T21:23:26.297Z,80.08
2023-02-11T21:25:53.533Z,80.43
2023-02-11T21:28:25.942Z,80.01
2023-02-11T21:30:56.819Z,80.77
2023-02-11T21:33:23.680Z,80.45
2023-02-11T21:35:50.159Z,80.40
2023-02-11T21:38:16.589Z,80.34
2023-02-11T21:40:42.923Z,80.89
2023-02-11T21:43:09.279Z,80.72
2023-02-11T21:45:41.364Z,81.41
2023-02-11T21:48:07.722Z,80.72
2023-02-11T21:50:34.231Z,81.21
2023-02-11T21:53:00.694Z,81.15
2023-02-11T21:55:27.070Z,80.09
2023-02-11T21:57:53.842Z,80.59
2023-02-11T22:00:20.336Z,80.63
2023-02-11T22:02:48.912Z,81.06
2023-02-11T22:05:16.229Z,80.53
2023-02-11T22:07:42.551Z,80.64
2023-02-11T22:10:12.213Z,80.99
2023-02-11T22:12:38.653Z,81.19
2023-02-11T22:15:05.409Z,80.86
2023-02-11T22:17:32.647Z,81.15
2023-02-11T22:19:59.097Z,80.89
2023-02-11T22:22:25.545Z,81.64
2023-02-11T22:24:52.021Z,81.59
2023-02-11T22:27:20.191Z,81.75
2023-02-11T22:29:47.114Z,81.78
2023-02-11T22:32:13.836Z,81.66
2023-02-11T22:34:40.355Z,82.00
2023-02-11T22:37:07.513Z,81.75
2023-02-11T22:39:34.153Z,81.92
2023-02-11T22:42:00.545Z,82.23
2023-02-11T22:44:26.982Z,82.25
2023-02-11T22:46:53.759Z,82.06
2023-02-11T22:49:21.551Z,82.15
2023-02-11T22:51:48.427Z,82.33
2023-02-11T22:54:16.146Z,81.88
2023-02-11T22:56:42.747Z,82.22
2023-02-11T22:59:11.193Z,82.48
2023-02-11T23:01:41.172Z,82.16
2023-02-11T23:04:09.071Z,82.36
2023-02-11T23:06:35.518Z,82.00
2023-02-11T23:09:03.375Z,82.02
2023-02-11T23:11:30.623Z,82.57
2023-02-11T23:13:57.495Z,83.23
2023-02-11T23:16:25.307Z,82.95
2023-02-11T23:18:52.150Z,82.62
2023-02-11T23:21:23.140Z,82.52
2023-02-11T23:23:53.246Z,82.30
2023-02-11T23:26:19.730Z,82.31
2023-02-11T23:28:46.270Z,82.90
2023-02-11T23:31:17.795Z,82.76
2023-02-11T23:33:44.845Z,82.54
2023-02-11T23:36:11.445Z,81.78
2023-02-11T23:38:38.197Z,82.92
2023-02-11T23:41:04.813Z,83.85
2023-02-11T23:43:31.230Z,84.04
2023-02-11T23:45:57.998Z,83.40
2023-02-11T23:48:24.847Z,83.04
2023-02-11T23:50:51.420Z,82.95
2023-02-11T23:53:17.805Z,82.81
2023-02-11T23:55:45.154Z,83.25
2023-02-11T23:58:13.063Z,82.83
